Time;durP1;ratioP1;P1;durP2;ratioP2;P2;SDS_P1;SDS_P2;PMS_P1;PMS_P2;Temp;Humidity;BMP_temperature;BMP_pressure;BME280_temperature;BME280_humidity;BME280_pressure;Samples;Min_cycle;Max_cycle;Signal;HPM_P1;HPM_P2
2023/06/13 00:01:35;;;;;;;0.00;0.00;;;;;;;18.88;72.05;100189.78;4979177;28;20038;-73
2023/06/13 00:04:02;;;;;;;0.00;0.00;;;;;;;18.88;71.96;100181.47;5011460;28;20021;-72
2023/06/13 00:06:29;;;;;;;0.00;0.00;;;;;;;18.88;71.89;100177.84;4995460;28;20054;-72
2023/06/13 00:08:56;;;;;;;0.00;0.00;;;;;;;18.91;72.23;100178.03;5011844;28;20112;-73
2023/06/13 00:11:22;;;;;;;0.00;0.00;;;;;;;18.91;71.90;100178.03;4997025;28;20057;-73
2023/06/13 00:13:47;;;;;;;0.00;0.00;;;;;;;18.95;72.12;100187.31;4978504;28;20038;-72
2023/06/13 00:16:13;;;;;;;0.00;0.00;;;;;;;18.98;72.00;100172.81;5003750;28;20018;-72
2023/06/13 00:18:39;;;;;;;0.00;0.00;;;;;;;19.04;71.95;100181.75;4981285;28;20044;-74
2023/06/13 00:21:06;;;;;;;0.00;0.00;;;;;;;19.07;71.78;100180.28;5014476;28;20394;-72
2023/06/13 00:23:31;;;;;;;0.00;0.00;;;;;;;19.10;71.77;100176.84;4995261;28;20037;-72
2023/06/13 00:25:57;;;;;;;0.00;0.00;;;;;;;19.14;71.89;100172.28;5012960;28;20027;-72
2023/06/13 00:28:22;;;;;;;0.00;0.00;;;;;;;19.15;72.25;100166.38;5005039;28;20772;-73
2023/06/13 00:30:48;;;;;;;0.00;0.00;;;;;;;19.19;72.23;100167.38;4992808;28;20054;-72
2023/06/13 00:33:17;;;;;;;0.00;0.00;;;;;;;19.17;72.25;100163.28;5005900;28;20030;-73
2023/06/13 00:35:44;;;;;;;0.00;0.00;;;;;;;19.18;72.70;100170.47;4999636;28;20054;-72
2023/06/13 00:38:10;;;;;;;0.00;0.00;;;;;;;19.28;72.04;100169.31;4997730;28;20520;-72
2023/06/13 00:40:36;;;;;;;0.00;0.00;;;;;;;19.45;72.65;100162.88;4991110;28;20047;-73
2023/06/13 00:43:02;;;;;;;0.00;0.00;;;;;;;19.65;72.02;100166.88;5004496;28;20036;-71
2023/06/13 00:45:29;;;;;;;0.00;0.00;;;;;;;19.73;72.15;100165.19;5002777;28;20042;-74
2023/06/13 00:48:02;;;;;;;0.00;0.00;;;;;;;19.78;71.76;100165.00;4999364;28;20050;-72
2023/06/13 00:50:43;;;;;;;0.00;0.00;;;;;;;19.85;71.14;100166.13;5004520;28;20396;-72
2023/06/13 00:53:16;;;;;;;0.00;0.00;;;;;;;19.82;71.43;100166.00;5017746;28;20026;-73
2023/06/13 00:55:42;;;;;;;0.00;0.00;;;;;;;19.75;71.58;100166.50;5009564;28;20033;-72
2023/06/13 00:58:10;;;;;;;0.00;0.00;;;;;;;19.69;71.62;100162.28;4998116;28;22184;-73
2023/06/13 01:00:37;;;;;;;0.00;0.00;;;;;;;19.66;71.64;100169.31;5015006;28;20037;-71
2023/06/13 01:03:07;;;;;;;0.00;0.00;;;;;;;19.61;71.46;100166.72;4983233;28;20084;-73
2023/06/13 01:05:36;;;;;;;0.00;0.00;;;;;;;19.55;71.83;100162.50;4998170;28;20041;-72
2023/06/13 01:08:08;;;;;;;0.00;0.00;;;;;;;19.48;71.93;100156.69;4993466;28;20399;-71
2023/06/13 01:10:34;;;;;;;0.00;0.00;;;;;;;19.45;72.10;100162.88;5000959;28;20026;-72
2023/06/13 01:13:24;;;;;;;0.00;0.00;;;;;;;19.43;72.28;100170.72;5001024;28;20106;-72
2023/06/13 01:16:28;;;;;;;0.00;0.00;;;;;;;19.39;72.16;100164.19;4997153;28;20026;-73
2023/06/13 01:18:58;;;;;;;0.00;0.00;;;;;;;19.29;72.26;100146.78;4995389;28;20026;-72
2023/06/13 01:21:26;;;;;;;0.00;0.00;;;;;;;19.26;72.29;100161.31;4994322;28;20033;-72
2023/06/13 01:24:10;;;;;;;0.00;0.00;;;;;;;19.20;72.63;100157.09;4992685;28;20072;-72
2023/06/13 01:26:56;;;;;;;0.00;0.00;;;;;;;19.14;72.56;100150.09;4995841;28;20030;-71
2023/06/13 01:29:23;;;;;;;0.00;0.00;;;;;;;19.10;72.95;100149.13;5010350;28;20033;-72
2023/06/13 01:31:56;;;;;;;0.00;0.00;;;;;;;19.02;72.43;100140.50;5005303;28;20038;-71
2023/06/13 01:34:24;;;;;;;0.00;0.00;;;;;;;19.04;73.12;100142.97;5002392;28;20028;-72
2023/06/13 01:36:49;;;;;;;0.00;0.00;;;;;;;19.12;73.33;100155.16;5002477;28;20508;-71
2023/06/13 01:39:15;;;;;;;0.00;0.00;;;;;;;19.15;72.64;100154.50;5013469;28;20057;-73
2023/06/13 01:41:40;;;;;;;0.00;0.00;;;;;;;19.09;72.72;100151.09;5005846;28;20109;-71
2023/06/13 01:44:06;;;;;;;0.00;0.00;;;;;;;19.01;72.80;100149.97;4995321;28;20488;-71
2023/06/13 01:46:51;;;;;;;0.00;0.00;;;;;;;18.90;73.08;100143.16;5010545;28;20057;-73
2023/06/13 01:49:25;;;;;;;0.00;0.00;;;;;;;18.83;73.59;100142.81;4997386;28;20037;-74
2023/06/13 01:52:26;;;;;;;0.00;0.00;;;;;;;18.85;73.69;100140.50;4999232;28;20476;-75
2023/06/13 01:55:03;;;;;;;0.00;0.00;;;;;;;18.89;73.50;100133.22;4991434;28;20038;-72
2023/06/13 01:57:36;;;;;;;0.00;0.00;;;;;;;19.05;73.33;100150.13;5003606;28;20034;-72
2023/06/13 02:00:03;;;;;;;0.00;0.00;;;;;;;19.10;73.02;100151.91;4999483;28;20068;-71
2023/06/13 02:02:29;;;;;;;0.00;0.00;;;;;;;19.12;73.18;100144.88;5011456;28;20441;-71
2023/06/13 02:04:55;;;;;;;0.00;0.00;;;;;;;19.08;72.97;100143.13;5002992;28;20034;-73
2023/06/13 02:07:21;;;;;;;0.00;0.00;;;;;;;18.96;73.60;100133.50;5004587;28;20052;-73
2023/06/13 02:09:46;;;;;;;0.00;0.00;;;;;;;18.96;73.10;100129.94;5004670;28;20061;-71
2023/06/13 02:12:12;;;;;;;0.00;0.00;;;;;;;18.92;73.58;100135.31;4988818;28;20357;-71
2023/06/13 02:14:39;;;;;;;0.00;0.00;;;;;;;18.78;73.58;100134.69;5002699;28;20050;-71
2023/06/13 02:17:06;;;;;;;0.00;0.00;;;;;;;18.67;73.21;100132.25;4980168;28;20034;-73
2023/06/13 02:19:32;;;;;;;0.00;0.00;;;;;;;18.54;73.54;100124.91;5003418;28;20057;-72
2023/06/13 02:21:57;;;;;;;0.00;0.00;;;;;;;18.41;74.04;100109.31;4996942;28;20046;-72
2023/06/13 02:24:22;;;;;;;0.00;0.00;;;;;;;18.35;73.81;100121.69;4987287;28;20030;-76
2023/06/13 02:26:48;;;;;;;0.00;0.00;;;;;;;18.28;74.21;100114.69;4986161;28;20035;-71
2023/06/13 02:29:13;;;;;;;0.00;0.00;;;;;;;18.37;74.29;100119.38;4991389;28;20420;-71
2023/06/13 02:31:41;;;;;;;0.00;0.00;;;;;;;18.43;73.70;100107.03;5017893;28;20486;-73
2023/06/13 02:34:06;;;;;;;0.00;0.00;;;;;;;18.36;73.37;100107.50;4994809;28;20025;-72
2023/06/13 02:36:32;;;;;;;0.00;0.00;;;;;;;18.26;73.64;100107.84;5004669;28;20033;-72
2023/06/13 02:39:01;;;;;;;0.00;0.00;;;;;;;18.16;73.41;100108.97;4990262;28;21503;-72
2023/06/13 02:41:26;;;;;;;0.00;0.00;;;;;;;18.08;73.44;100107.84;4996772;28;20024;-73
2023/06/13 02:43:51;;;;;;;0.00;0.00;;;;;;;18.05;73.66;100107.69;4993931;28;20034;-73
2023/06/13 02:46:17;;;;;;;0.00;0.00;;;;;;;18.05;73.03;100121.53;5004056;28;20451;-73
2023/06/13 02:48:43;;;;;;;0.00;0.00;;;;;;;17.95;73.34;100104.06;5000685;28;20117;-73
2023/06/13 02:51:09;;;;;;;0.00;0.00;;;;;;;17.91;73.13;100108.63;4963620;28;20037;-74
2023/06/13 02:53:34;;;;;;;0.00;0.00;;;;;;;17.95;73.61;100117.91;4995206;28;20389;-73
2023/06/13 02:56:00;;;;;;;0.00;0.00;;;;;;;17.95;73.21;100117.91;4992078;28;20030;-73
2023/06/13 02:58:25;;;;;;;0.00;0.00;;;;;;;17.98;73.10;100107.34;4996083;28;20046;-72
2023/06/13 03:00:51;;;;;;;0.00;0.00;;;;;;;18.06;72.99;100120.34;5001528;28;20049;-73
2023/06/13 03:03:18;;;;;;;0.00;0.00;;;;;;;18.18;72.65;100111.41;4981726;28;20046;-73
2023/06/13 03:05:47;;;;;;;0.00;0.00;;;;;;;18.29;72.05;100112.72;4999598;28;20098;-73
2023/06/13 03:08:18;;;;;;;0.00;0.00;;;;;;;18.33;71.76;100112.91;4993059;28;20029;-74
2023/06/13 03:10:44;;;;;;;0.00;0.00;;;;;;;18.22;71.84;100110.44;5025655;28;20460;-73
2023/06/13 03:13:09;;;;;;;0.00;0.00;;;;;;;18.15;71.78;100115.66;4997145;28;20026;-72
2023/06/13 03:15:35;;;;;;;0.00;0.00;;;;;;;18.04;72.47;100117.13;4996102;28;20719;-72
2023/06/13 03:18:00;;;;;;;0.00;0.00;;;;;;;17.96;72.35;100113.22;5007488;28;23022;-73
2023/06/13 03:20:26;;;;;;;0.00;0.00;;;;;;;17.79;72.29;100100.13;4997863;28;20469;-73
2023/06/13 03:22:51;;;;;;;0.00;0.00;;;;;;;17.63;72.61;100097.81;4992062;28;20372;-74
2023/06/13 03:25:18;;;;;;;0.00;0.00;;;;;;;17.50;72.62;100103.47;4986701;28;20027;-73
2023/06/13 03:27:45;;;;;;;0.00;0.00;;;;;;;17.31;72.90;100089.91;4992502;28;20058;-73
2023/06/13 03:30:11;;;;;;;0.00;0.00;;;;;;;17.23;72.91;100100.59;4981948;28;20033;-74
2023/06/13 03:32:36;;;;;;;0.00;0.00;;;;;;;17.15;73.44;100106.91;4999977;28;20018;-73
2023/06/13 03:35:02;;;;;;;0.00;0.00;;;;;;;17.05;73.49;100105.22;5000086;28;20030;-73
2023/06/13 03:37:28;;;;;;;0.00;0.00;;;;;;;16.97;73.23;100096.88;4980876;28;20044;-72
2023/06/13 03:39:53;;;;;;;0.00;0.00;;;;;;;16.89;72.91;100095.72;5002187;28;20054;-74
2023/06/13 03:42:19;;;;;;;0.00;0.00;;;;;;;16.87;73.41;100111.78;4998342;28;20048;-73
2023/06/13 03:44:48;;;;;;;0.00;0.00;;;;;;;16.79;73.23;100104.25;5006578;28;20041;-74
2023/06/13 03:47:14;;;;;;;0.00;0.00;;;;;;;16.71;72.98;100106.63;4993965;28;20037;-73
2023/06/13 03:49:39;;;;;;;0.00;0.00;;;;;;;16.65;72.68;100107.09;4997499;28;20058;-72
2023/06/13 03:52:05;;;;;;;0.00;0.00;;;;;;;16.63;73.14;100106.56;5005319;28;20113;-73
2023/06/13 03:54:30;;;;;;;0.00;0.00;;;;;;;16.56;72.60;100098.75;4996931;28;20120;-72
2023/06/13 03:56:55;;;;;;;0.00;0.00;;;;;;;16.53;73.25;100108.47;4987612;28;20042;-72
2023/06/13 03:59:21;;;;;;;0.00;0.00;;;;;;;16.50;72.89;100111.88;4998224;28;20064;-72
2023/06/13 04:01:47;;;;;;;0.00;0.00;;;;;;;16.46;72.97;100110.03;5003936;28;20068;-73
2023/06/13 04:04:12;;;;;;;0.00;0.00;;;;;;;16.35;72.97;100104.78;4983809;28;20069;-73
2023/06/13 04:06:38;;;;;;;0.00;0.00;;;;;;;16.31;73.16;100109.28;4961950;28;20129;-74
2023/06/13 04:09:06;;;;;;;0.00;0.00;;;;;;;16.19;73.03;100098.81;5003855;28;20435;-73
2023/06/13 04:11:36;;;;;;;0.00;0.00;;;;;;;16.15;73.28;100106.06;4996067;28;20056;-73
2023/06/13 04:14:01;;;;;;;0.00;0.00;;;;;;;16.14;73.52;100109.94;5019190;28;20029;-74
2023/06/13 04:16:27;;;;;;;0.00;0.00;;;;;;;16.07;73.39;100115.06;4996988;28;20112;-72
2023/06/13 04:18:54;;;;;;;0.00;0.00;;;;;;;16.01;73.29;100119.06;5002556;28;20040;-73
2023/06/13 04:21:21;;;;;;;0.00;0.00;;;;;;;15.99;73.75;100124.06;5002999;28;20030;-72
2023/06/13 04:23:48;;;;;;;0.00;0.00;;;;;;;15.93;73.74;100117.03;4998604;28;20032;-74
2023/06/13 04:26:17;;;;;;;0.00;0.00;;;;;;;15.92;73.61;100123.69;4988207;28;20038;-73
2023/06/13 04:28:43;;;;;;;0.00;0.00;;;;;;;15.92;73.82;100123.69;4984057;28;20030;-74
2023/06/13 04:31:10;;;;;;;0.00;0.00;;;;;;;15.92;73.46;100123.69;5010317;28;20026;-72
2023/06/13 04:33:37;;;;;;;0.00;0.00;;;;;;;15.95;73.57;100125.84;4997431;28;20456;-74
2023/06/13 04:36:05;;;;;;;0.00;0.00;;;;;;;16.00;73.55;100122.94;5004361;28;20698;-73
2023/06/13 04:38:34;;;;;;;0.00;0.00;;;;;;;16.10;73.21;100130.19;4980818;28;20034;-71
2023/06/13 04:41:00;;;;;;;0.00;0.00;;;;;;;16.21;72.53;100126.88;4998160;28;20489;-73
2023/06/13 04:43:28;;;;;;;0.00;0.00;;;;;;;16.33;72.20;100126.31;4999546;28;20030;-72
2023/06/13 04:45:55;;;;;;;0.00;0.00;;;;;;;16.49;72.10;100132.31;4993741;28;20096;-72
2023/06/13 04:48:25;;;;;;;0.00;0.00;;;;;;;16.60;71.27;100123.78;5005807;28;20056;-72
2023/06/13 04:50:51;;;;;;;0.00;0.00;;;;;;;16.71;70.97;100120.44;5008975;28;20513;-71
2023/06/13 04:53:21;;;;;;;0.00;0.00;;;;;;;16.88;70.81;100128.06;5012798;28;20460;-74
2023/06/13 04:55:48;;;;;;;0.00;0.00;;;;;;;16.96;69.85;100128.44;4996252;28;20049;-72
2023/06/13 04:58:16;;;;;;;0.00;0.00;;;;;;;17.01;69.46;100123.59;5002765;28;20034;-72
2023/06/13 05:00:48;;;;;;;0.00;0.00;;;;;;;17.24;68.70;100134.56;4990695;28;20117;-72
2023/06/13 05:03:16;;;;;;;0.00;0.00;;;;;;;17.33;68.45;100137.38;5000929;28;20036;-72
2023/06/13 05:05:43;;;;;;;0.00;0.00;;;;;;;17.41;68.02;100139.38;4994256;28;20030;-73
2023/06/13 05:08:09;;;;;;;0.00;0.00;;;;;;;17.45;67.82;100135.66;4985719;28;20157;-72
2023/06/13 05:10:35;;;;;;;0.00;0.00;;;;;;;17.44;67.44;100127.66;5005093;28;20037;-73
2023/06/13 05:13:01;;;;;;;0.00;0.00;;;;;;;17.51;67.22;100150.13;4980254;28;20353;-72
2023/06/13 05:15:26;;;;;;;0.00;0.00;;;;;;;17.56;66.84;100147.22;5005052;28;20436;-73
2023/06/13 05:17:58;;;;;;;0.00;0.00;;;;;;;17.57;66.76;100154.38;5002003;28;20153;-72
2023/06/13 05:20:26;;;;;;;0.00;0.00;;;;;;;17.64;66.92;100159.47;4985787;28;20544;-73
2023/06/13 05:22:52;;;;;;;0.00;0.00;;;;;;;17.69;67.30;100158.50;4998942;28;20112;-72
2023/06/13 05:25:19;;;;;;;0.00;0.00;;;;;;;17.72;66.36;100160.63;5005449;28;20026;-73
2023/06/13 05:27:45;;;;;;;0.00;0.00;;;;;;;17.78;67.02;100151.03;4995197;28;20161;-72
2023/06/13 05:30:10;;;;;;;0.00;0.00;;;;;;;17.78;66.39;100153.78;4990274;28;20065;-72
2023/06/13 05:32:36;;;;;;;0.00;0.00;;;;;;;17.83;65.76;100156.41;5008491;28;20064;-71
2023/06/13 05:35:01;;;;;;;0.00;0.00;;;;;;;17.95;66.34;100164.94;5005695;28;20042;-72
2023/06/13 05:37:28;;;;;;;0.00;0.00;;;;;;;18.06;65.95;100170.16;5003304;28;20107;-71
2023/06/13 05:39:54;;;;;;;0.00;0.00;;;;;;;18.13;65.50;100159.44;5002175;28;20085;-72
2023/06/13 05:42:19;;;;;;;0.00;0.00;;;;;;;18.22;65.17;100174.09;4992146;28;20511;-72
2023/06/13 05:44:45;;;;;;;0.00;0.00;;;;;;;18.24;64.49;100160.75;5001794;28;20033;-71
2023/06/13 05:47:10;;;;;;;0.00;0.00;;;;;;;18.34;64.81;100164.31;4994538;28;20029;-72
2023/06/13 05:49:36;;;;;;;0.00;0.00;;;;;;;18.35;64.25;100163.19;5001526;28;20045;-73
2023/06/13 05:52:01;;;;;;;0.00;0.00;;;;;;;18.41;63.96;100173.81;5001033;28;20038;-72
2023/06/13 05:54:27;;;;;;;0.00;0.00;;;;;;;18.53;64.16;100169.53;5001805;28;20037;-72
2023/06/13 05:56:52;;;;;;;0.00;0.00;;;;;;;18.62;63.64;100165.66;4996458;28;20431;-71
2023/06/13 05:59:18;;;;;;;0.00;0.00;;;;;;;18.85;63.15;100176.53;4990868;28;20137;-72
2023/06/13 06:01:45;;;;;;;0.00;0.00;;;;;;;18.98;62.66;100170.03;4989718;28;20057;-72
2023/06/13 06:04:11;;;;;;;0.00;0.00;;;;;;;19.07;62.73;100175.56;4994435;28;20468;-72
2023/06/13 06:06:37;;;;;;;0.00;0.00;;;;;;;19.14;62.15;100177.81;4980523;28;20034;-71
2023/06/13 06:09:03;;;;;;;0.00;0.00;;;;;;;19.23;61.85;100167.53;5002055;28;20029;-73
2023/06/13 06:11:31;;;;;;;0.00;0.00;;;;;;;19.43;61.28;100177.06;4997604;28;20040;-72
2023/06/13 06:13:56;;;;;;;0.00;0.00;;;;;;;19.52;61.11;100168.72;4999304;28;20438;-71
2023/06/13 06:16:21;;;;;;;0.00;0.00;;;;;;;19.67;60.31;100172.91;5000777;28;20064;-74
2023/06/13 06:18:48;;;;;;;0.00;0.00;;;;;;;19.78;59.91;100181.66;5004317;28;20080;-72
2023/06/13 06:21:14;;;;;;;0.00;0.00;;;;;;;19.86;59.88;100170.53;4998318;28;20357;-72
2023/06/13 06:23:42;;;;;;;0.00;0.00;;;;;;;19.92;59.66;100176.72;4994910;28;20538;-71
2023/06/13 06:26:08;;;;;;;0.00;0.00;;;;;;;20.12;59.12;100174.31;4992482;28;20044;-72
2023/06/13 06:28:33;;;;;;;0.00;0.00;;;;;;;20.15;58.73;100165.28;4994210;28;20034;-73
2023/06/13 06:31:00;;;;;;;0.00;0.00;;;;;;;20.28;58.48;100167.03;5016676;28;20153;-72
2023/06/13 06:33:25;;;;;;;0.00;0.00;;;;;;;20.37;58.05;100155.81;4992964;28;20023;-72
2023/06/13 06:35:52;;;;;;;0.00;0.00;;;;;;;20.51;57.95;100166.66;4999638;28;20129;-72
2023/06/13 06:38:18;;;;;;;0.00;0.00;;;;;;;20.57;57.65;100160.56;4988529;28;20053;-71
2023/06/13 06:40:43;;;;;;;0.00;0.00;;;;;;;20.61;57.44;100157.91;4962193;28;20057;-71
2023/06/13 06:43:08;;;;;;;0.00;0.00;;;;;;;20.67;57.51;100161.34;4994244;28;20708;-71
2023/06/13 06:45:34;;;;;;;0.00;0.00;;;;;;;20.74;57.32;100151.28;4987830;28;20034;-71
2023/06/13 06:48:01;;;;;;;0.00;0.00;;;;;;;20.96;56.61;100145.69;5007230;28;20374;-70
2023/06/13 06:50:27;;;;;;;0.00;0.00;;;;;;;21.20;56.47;100153.25;4996603;28;20424;-72
2023/06/13 06:52:52;;;;;;;0.00;0.00;;;;;;;21.41;56.16;100161.53;5006018;28;20041;-72
2023/06/13 06:55:18;;;;;;;0.00;0.00;;;;;;;21.49;55.84;100151.47;4992380;28;20033;-71
2023/06/13 06:57:44;;;;;;;0.00;0.00;;;;;;;21.45;55.26;100157.72;4996660;28;20067;-72
2023/06/13 07:00:14;;;;;;;0.00;0.00;;;;;;;21.38;55.42;100151.09;4991112;28;20136;-77
2023/06/13 07:02:43;;;;;;;0.00;0.00;;;;;;;21.19;55.10;100148.88;4984635;28;20120;-78
2023/06/13 07:05:09;;;;;;;0.00;0.00;;;;;;;21.10;55.17;100147.00;4994398;28;20029;-78
2023/06/13 07:07:35;;;;;;;0.00;0.00;;;;;;;20.93;55.61;100130.50;5001116;28;20365;-77
2023/06/13 07:10:05;;;;;;;0.00;0.00;;;;;;;20.96;55.39;100129.81;4985652;28;20045;-77
2023/06/13 07:12:33;;;;;;;0.00;0.00;;;;;;;21.12;55.45;100154.19;4976457;28;20037;-77
2023/06/13 07:14:58;;;;;;;0.00;0.00;;;;;;;21.04;54.92;100137.25;4992781;28;20030;-76
2023/06/13 07:17:26;;;;;;;0.00;0.00;;;;;;;21.07;54.74;100133.78;5023407;28;20036;-78
2023/06/13 07:19:51;;;;;;;0.00;0.00;;;;;;;21.21;54.75;100147.34;4991652;28;20085;-77
2023/06/13 07:22:20;;;;;;;0.00;0.00;;;;;;;21.13;54.23;100128.00;5006198;28;20025;-78
2023/06/13 07:24:45;;;;;;;0.00;0.00;;;;;;;21.24;53.90;100123.63;5003612;28;20083;-77
2023/06/13 07:27:11;;;;;;;0.00;0.00;;;;;;;21.32;54.09;100136.63;4992368;28;20026;-77
2023/06/13 07:29:36;;;;;;;0.00;0.00;;;;;;;21.40;53.82;100132.91;5002923;28;20050;-76
2023/06/13 07:32:02;;;;;;;0.00;0.00;;;;;;;21.42;53.41;100121.41;4984130;28;20041;-77
2023/06/13 07:34:27;;;;;;;0.00;0.00;;;;;;;21.58;53.18;100127.13;5000800;28;20179;-77
2023/06/13 07:36:56;;;;;;;0.00;0.00;;;;;;;21.58;52.89;100118.78;4999207;28;20617;-77
2023/06/13 07:39:21;;;;;;;0.00;0.00;;;;;;;21.71;52.42;100123.22;5006973;28;20045;-77
2023/06/13 07:41:58;;;;;;;0.00;0.00;;;;;;;21.82;51.96;100128.31;5001969;28;20072;-76
2023/06/13 07:44:26;;;;;;;0.00;0.00;;;;;;;21.87;52.01;100116.91;4977984;28;20030;-78
2023/06/13 07:46:54;;;;;;;0.00;0.00;;;;;;;21.92;51.36;100113.91;4998673;28;20030;-77
2023/06/13 07:49:53;;;;;;;;;;;;;;;;;;;;;
2023/06/13 07:52:40;;;;;;;;;;;;;;;;;;;;;
2023/06/13 07:55:14;;;;;;;0.00;0.00;;;;;;;22.25;49.96;100118.47;4998039;28;20448;-77
2023/06/13 07:57:41;;;;;;;0.00;0.00;;;;;;;22.43;49.97;100133.75;4991215;28;20034;-77
2023/06/13 08:03:03;;;;;;;0.00;0.00;;;;;;;22.84;50.06;100142.88;4993310;28;20131;-77
2023/06/13 08:05:28;;;;;;;0.00;0.00;;;;;;;23.05;49.85;100152.97;4992674;28;20078;-70
2023/06/13 08:07:54;;;;;;;0.00;0.00;;;;;;;23.20;49.76;100145.03;4995765;28;20057;-70
2023/06/13 08:10:19;;;;;;;0.00;0.00;;;;;;;23.43;49.41;100157.16;4993170;28;20034;-70
2023/06/13 08:12:45;;;;;;;0.00;0.00;;;;;;;23.56;48.91;100143.94;4988402;28;20030;-69
2023/06/13 08:15:10;;;;;;;0.00;0.00;;;;;;;23.73;49.03;100142.75;4980912;28;20056;-70
2023/06/13 08:17:37;;;;;;;0.00;0.00;;;;;;;23.90;48.30;100146.34;4988720;28;20054;-70
2023/06/13 08:20:04;;;;;;;0.00;0.00;;;;;;;23.99;48.30;100144.16;4992787;28;20037;-70
2023/06/13 08:22:29;;;;;;;0.00;0.00;;;;;;;24.08;48.17;100136.41;5000575;28;20037;-71
2023/06/13 08:24:55;;;;;;;0.00;0.00;;;;;;;24.15;48.06;100150.53;4985471;28;20041;-70
2023/06/13 08:27:21;;;;;;;0.00;0.00;;;;;;;24.17;47.46;100139.78;5001249;28;20070;-70
2023/06/13 08:29:46;;;;;;;0.00;0.00;;;;;;;24.30;47.66;100143.28;4993774;28;20461;-69
2023/06/13 08:32:12;;;;;;;0.00;0.00;;;;;;;24.47;47.37;100147.59;4995080;28;20131;-70
2023/06/13 08:34:37;;;;;;;0.00;0.00;;;;;;;24.64;47.34;100145.59;4989533;28;20069;-70
2023/06/13 08:37:03;;;;;;;0.00;0.00;;;;;;;24.72;46.98;100145.38;5000644;28;20042;-71
2023/06/13 08:39:28;;;;;;;0.00;0.00;;;;;;;24.80;46.90;100137.13;5001158;28;20034;-70
2023/06/13 08:41:55;;;;;;;0.00;0.00;;;;;;;24.88;45.98;100139.69;4991620;28;20540;-71
2023/06/13 08:44:21;;;;;;;0.00;0.00;;;;;;;24.96;46.30;100134.22;5017003;28;20036;-70
2023/06/13 08:46:47;;;;;;;0.00;0.00;;;;;;;25.01;45.69;100128.31;4988405;28;20041;-70
2023/06/13 08:49:12;;;;;;;0.00;0.00;;;;;;;25.08;45.59;100126.44;4994155;28;20037;-70
2023/06/13 08:51:37;;;;;;;0.00;0.00;;;;;;;25.19;45.93;100126.66;4994696;28;20065;-70
2023/06/13 08:54:04;;;;;;;0.00;0.00;;;;;;;25.28;45.45;100129.19;4992527;28;20694;-70
2023/06/13 08:56:40;;;;;;;0.00;0.00;;;;;;;25.40;45.28;100131.03;4997814;28;20495;-71
2023/06/13 08:59:14;;;;;;;0.00;0.00;;;;;;;25.44;45.22;100121.50;4988513;28;20061;-70
2023/06/13 09:01:43;;;;;;;0.00;0.00;;;;;;;25.53;45.24;100118.44;4991671;28;20133;-71
2023/06/13 09:04:11;;;;;;;0.00;0.00;;;;;;;25.61;44.55;100120.19;4995336;28;20030;-70
2023/06/13 09:06:37;;;;;;;0.00;0.00;;;;;;;25.71;44.32;100117.91;4997876;28;20037;-70
2023/06/13 09:09:07;;;;;;;0.00;0.00;;;;;;;25.77;44.44;100117.22;4997832;28;20453;-71
2023/06/13 09:11:36;;;;;;;0.00;0.00;;;;;;;25.89;44.28;100112.56;4993912;28;20037;-70
2023/06/13 09:14:06;;;;;;;0.00;0.00;;;;;;;26.00;44.13;100109.97;4986398;28;20036;-70
2023/06/13 09:16:32;;;;;;;0.00;0.00;;;;;;;26.07;43.57;100101.66;5000758;28;20066;-70
2023/06/13 09:18:59;;;;;;;0.00;0.00;;;;;;;26.17;42.99;100117.81;4994184;28;20184;-71
2023/06/13 09:21:26;;;;;;;0.00;0.00;;;;;;;26.23;42.53;100105.06;4998698;28;20037;-71
2023/06/13 09:23:58;;;;;;;0.00;0.00;;;;;;;26.26;42.33;100104.31;4996724;28;20034;-70
2023/06/13 09:26:25;;;;;;;0.00;0.00;;;;;;;26.28;42.33;100113.16;5000502;28;20037;-71
2023/06/13 09:28:51;;;;;;;0.00;0.00;;;;;;;26.36;42.47;100102.03;4999088;28;20030;-70
2023/06/13 09:31:16;;;;;;;0.00;0.00;;;;;;;26.43;42.21;100107.69;4991006;28;20037;-71
2023/06/13 09:33:44;;;;;;;0.00;0.00;;;;;;;26.55;41.81;100110.25;4990214;28;20030;-70
2023/06/13 09:36:09;;;;;;;0.00;0.00;;;;;;;26.58;41.20;100098.28;4995129;28;20034;-71
2023/06/13 09:38:40;;;;;;;0.00;0.00;;;;;;;26.74;41.36;100094.47;4984535;28;20037;-70
2023/06/13 09:41:08;;;;;;;0.00;0.00;;;;;;;26.89;41.41;100099.03;5002012;28;20053;-72
2023/06/13 09:43:33;;;;;;;0.00;0.00;;;;;;;27.00;40.99;100094.34;5000642;28;20034;-71
2023/06/13 09:46:01;;;;;;;0.00;0.00;;;;;;;27.18;40.96;100113.34;4993138;28;20044;-69
2023/06/13 09:48:28;;;;;;;0.00;0.00;;;;;;;27.29;40.46;100097.41;4991770;28;20158;-71
2023/06/13 09:50:54;;;;;;;0.00;0.00;;;;;;;27.40;40.69;100099.53;4995477;28;20038;-71
2023/06/13 09:53:20;;;;;;;0.00;0.00;;;;;;;27.54;40.57;100094.00;5000136;28;20137;-71
2023/06/13 09:55:45;;;;;;;0.00;0.00;;;;;;;27.74;40.18;100102.16;4989625;28;20041;-72
2023/06/13 09:58:11;;;;;;;0.00;0.00;;;;;;;27.81;40.05;100099.41;4995021;28;20028;-74
2023/06/13 10:00:36;;;;;;;0.00;0.00;;;;;;;27.97;40.31;100102.72;4994262;28;20038;-72
2023/06/13 10:03:03;;;;;;;0.00;0.00;;;;;;;28.16;40.00;100100.81;4985833;28;20097;-72
2023/06/13 10:05:28;;;;;;;0.00;0.00;;;;;;;28.33;39.40;100108.53;4997053;28;20050;-72
2023/06/13 10:07:55;;;;;;;0.00;0.00;;;;;;;28.84;38.86;100108.69;4989439;28;20026;-71
2023/06/13 10:10:20;;;;;;;0.00;0.00;;;;;;;29.84;37.57;100107.16;4997860;28;20030;-71
2023/06/13 10:13:00;;;;;;;0.00;0.00;;;;;;;31.05;35.26;100105.03;4995032;28;20030;-72
2023/06/13 10:15:28;;;;;;;0.00;0.00;;;;;;;32.24;32.88;100108.78;4995556;28;20022;-70
2023/06/13 10:17:57;;;;;;;0.00;0.00;;;;;;;33.22;31.03;100103.38;4988713;28;20054;-71
2023/06/13 10:20:23;;;;;;;0.00;0.00;;;;;;;34.28;30.11;100098.22;4990187;28;20084;-70
2023/06/13 10:22:48;;;;;;;0.00;0.00;;;;;;;35.23;28.66;100101.31;4986538;28;20447;-70
2023/06/13 10:25:18;;;;;;;0.00;0.00;;;;;;;35.78;27.56;100104.41;4996228;28;20381;-71
2023/06/13 10:27:48;;;;;;;0.00;0.00;;;;;;;36.47;27.18;100105.34;4987125;28;20109;-70
2023/06/13 10:30:55;;;;;;;0.00;0.00;;;;;;;37.07;26.16;100109.59;4985728;28;20528;-71
2023/06/13 10:33:23;;;;;;;0.00;0.00;;;;;;;37.28;26.14;100113.81;4984378;28;20048;-71
2023/06/13 10:36:20;;;;;;;0.00;0.00;;;;;;;37.21;26.46;100109.13;4991375;28;20034;-70
2023/06/13 10:39:30;;;;;;;0.00;0.00;;;;;;;37.13;26.53;100110.63;4992564;28;20042;-70
2023/06/13 10:42:16;;;;;;;0.00;0.00;;;;;;;36.81;26.89;100099.03;4983097;28;20046;-71
2023/06/13 10:44:51;;;;;;;0.00;0.00;;;;;;;36.40;26.31;100085.63;4994805;28;20044;-70
2023/06/13 10:47:17;;;;;;;0.00;0.00;;;;;;;36.19;26.84;100099.22;4995205;28;20041;-71
2023/06/13 10:49:44;;;;;;;0.00;0.00;;;;;;;35.98;27.28;100095.75;4986164;28;20022;-71
2023/06/13 10:52:11;;;;;;;0.00;0.00;;;;;;;35.72;27.17;100094.00;4997629;28;20061;-70
2023/06/13 10:54:39;;;;;;;0.00;0.00;;;;;;;35.39;26.94;100082.72;5008226;28;20485;-70
2023/06/13 10:57:05;;;;;;;0.00;0.00;;;;;;;35.06;27.42;100089.19;4992683;28;20030;-70
2023/06/13 10:59:39;;;;;;;0.00;0.00;;;;;;;34.99;28.09;100088.53;5012113;28;20045;-70
2023/06/13 11:02:13;;;;;;;0.00;0.00;;;;;;;34.81;28.28;100080.47;5000516;28;20492;-71
2023/06/13 11:04:39;;;;;;;0.00;0.00;;;;;;;34.68;28.66;100089.66;4995763;28;20125;-71
2023/06/13 11:07:20;;;;;;;0.00;0.00;;;;;;;34.54;28.87;100087.91;4997833;28;20045;-71
2023/06/13 11:10:00;;;;;;;0.00;0.00;;;;;;;34.46;29.44;100091.34;5013834;28;20373;-72
2023/06/13 11:12:26;;;;;;;0.00;0.00;;;;;;;34.42;29.70;100085.78;4989644;28;20034;-71
2023/06/13 11:14:57;;;;;;;0.00;0.00;;;;;;;34.40;30.27;100086.22;5001294;28;20025;-71
2023/06/13 11:17:23;;;;;;;0.00;0.00;;;;;;;34.45;30.47;100087.72;4998825;28;20076;-73
2023/06/13 11:19:52;;;;;;;0.00;0.00;;;;;;;34.61;30.97;100082.09;5005106;28;20575;-71
2023/06/13 11:22:21;;;;;;;0.00;0.00;;;;;;;34.89;31.14;100094.03;5018923;28;20041;-71
2023/06/13 11:24:48;;;;;;;0.00;0.00;;;;;;;35.28;30.04;100089.47;4980997;28;20109;-71
2023/06/13 11:27:16;;;;;;;0.00;0.00;;;;;;;36.06;29.08;100096.34;4995121;28;20476;-71
2023/06/13 11:29:45;;;;;;;0.00;0.00;;;;;;;37.29;28.05;100095.47;5003526;28;20034;-71
2023/06/13 11:32:12;;;;;;;0.00;0.00;;;;;;;39.07;25.61;100094.94;4987115;28;20355;-71
2023/06/13 11:34:50;;;;;;;0.00;0.00;;;;;;;41.40;22.73;100093.31;5018231;28;20121;-72